sensor_id;sensor_type;location;lat;lon;timestamp;P1;durP1;ratioP1;P2;durP2;ratioP2
3689;SDS011;1861;50.240;8.596;2023-11-21T00:00:05;2.73;;;2.40;;
3689;SDS011;1861;50.240;8.596;2023-11-21T00:02:39;5.47;;;2.37;;
3689;SDS011;1861;50.240;8.596;2023-11-21T00:05:08;3.60;;;1.90;;
3689;SDS011;1861;50.240;8.596;2023-11-21T00:07:37;3.50;;;1.93;;
3689;SDS011;1861;50.240;8.596;2023-11-21T00:10:05;3.33;;;1.90;;
3689;SDS011;1861;50.240;8.596;2023-11-21T00:12:35;4.53;;;2.40;;
3689;SDS011;1861;50.240;8.596;2023-11-21T00:15:05;5.43;;;3.10;;
3689;SDS011;1861;50.240;8.596;2023-11-21T00:17:36;6.87;;;2.37;;
3689;SDS011;1861;50.240;8.596;2023-11-21T00:20:05;3.10;;;2.00;;
3689;SDS011;1861;50.240;8.596;2023-11-21T00:22:34;2.23;;;2.00;;
3689;SDS011;1861;50.240;8.596;2023-11-21T00:25:03;2.83;;;2.00;;
3689;SDS011;1861;50.240;8.596;2023-11-21T00:27:31;2.50;;;1.90;;
3689;SDS011;1861;50.240;8.596;2023-11-21T00:30:01;3.10;;;1.90;;
3689;SDS011;1861;50.240;8.596;2023-11-21T00:32:31;3.70;;;2.00;;
3689;SDS011;1861;50.240;8.596;2023-11-21T00:34:59;2.40;;;2.10;;
3689;SDS011;1861;50.240;8.596;2023-11-21T00:37:27;3.87;;;2.43;;
3689;SDS011;1861;50.240;8.596;2023-11-21T00:39:57;5.20;;;2.20;;
3689;SDS011;1861;50.240;8.596;2023-11-21T00:42:26;3.20;;;1.70;;
3689;SDS011;1861;50.240;8.596;2023-11-21T00:44:55;3.67;;;2.33;;
3689;SDS011;1861;50.240;8.596;2023-11-21T00:47:25;3.93;;;2.50;;
3689;SDS011;1861;50.240;8.596;2023-11-21T00:49:53;2.93;;;2.00;;
3689;SDS011;1861;50.240;8.596;2023-11-21T00:52:21;4.07;;;2.93;;
3689;SDS011;1861;50.240;8.596;2023-11-21T00:54:49;12.00;;;6.10;;
3689;SDS011;1861;50.240;8.596;2023-11-21T00:57:17;9.40;;;4.97;;
3689;SDS011;1861;50.240;8.596;2023-11-21T00:59:46;18.53;;;8.57;;
3689;SDS011;1861;50.240;8.596;2023-11-21T01:02:14;10.20;;;6.13;;
3689;SDS011;1861;50.240;8.596;2023-11-21T01:04:43;10.97;;;6.90;;
3689;SDS011;1861;50.240;8.596;2023-11-21T01:07:11;9.33;;;5.67;;
3689;SDS011;1861;50.240;8.596;2023-11-21T01:09:40;3.67;;;2.83;;
3689;SDS011;1861;50.240;8.596;2023-11-21T01:12:08;4.33;;;2.60;;
3689;SDS011;1861;50.240;8.596;2023-11-21T01:14:36;8.47;;;3.90;;
3689;SDS011;1861;50.240;8.596;2023-11-21T01:17:04;3.07;;;2.60;;
3689;SDS011;1861;50.240;8.596;2023-11-21T01:19:32;4.07;;;3.03;;
3689;SDS011;1861;50.240;8.596;2023-11-21T01:22:02;4.53;;;3.00;;
3689;SDS011;1861;50.240;8.596;2023-11-21T01:24:31;2.97;;;2.50;;
3689;SDS011;1861;50.240;8.596;2023-11-21T01:26:59;4.93;;;2.53;;
3689;SDS011;1861;50.240;8.596;2023-11-21T01:29:28;3.23;;;2.40;;
3689;SDS011;1861;50.240;8.596;2023-11-21T01:31:56;4.80;;;3.03;;
3689;SDS011;1861;50.240;8.596;2023-11-21T01:34:24;2.97;;;2.67;;
3689;SDS011;1861;50.240;8.596;2023-11-21T01:36:53;2.57;;;2.37;;
3689;SDS011;1861;50.240;8.596;2023-11-21T01:39:22;3.43;;;2.60;;
3689;SDS011;1861;50.240;8.596;2023-11-21T01:41:51;4.33;;;2.77;;
3689;SDS011;1861;50.240;8.596;2023-11-21T01:44:19;5.70;;;3.60;;
3689;SDS011;1861;50.240;8.596;2023-11-21T01:46:47;3.33;;;2.60;;
3689;SDS011;1861;50.240;8.596;2023-11-21T01:49:16;5.03;;;2.67;;
3689;SDS011;1861;50.240;8.596;2023-11-21T01:51:47;3.53;;;2.30;;
3689;SDS011;1861;50.240;8.596;2023-11-21T01:54:16;5.87;;;2.23;;
3689;SDS011;1861;50.240;8.596;2023-11-21T01:56:47;3.40;;;2.57;;
3689;SDS011;1861;50.240;8.596;2023-11-21T01:59:18;7.93;;;2.83;;
3689;SDS011;1861;50.240;8.596;2023-11-21T02:01:48;6.60;;;3.20;;
3689;SDS011;1861;50.240;8.596;2023-11-21T02:04:18;4.37;;;2.33;;
3689;SDS011;1861;50.240;8.596;2023-11-21T02:06:47;3.43;;;2.60;;
3689;SDS011;1861;50.240;8.596;2023-11-21T02:09:22;2.93;;;2.20;;
3689;SDS011;1861;50.240;8.596;2023-11-21T02:11:54;3.13;;;2.50;;
3689;SDS011;1861;50.240;8.596;2023-11-21T02:14:24;6.97;;;2.27;;
3689;SDS011;1861;50.240;8.596;2023-11-21T02:16:54;3.80;;;2.20;;
3689;SDS011;1861;50.240;8.596;2023-11-21T02:19:24;5.40;;;2.23;;
3689;SDS011;1861;50.240;8.596;2023-11-21T02:21:52;5.30;;;2.40;;
3689;SDS011;1861;50.240;8.596;2023-11-21T02:24:22;3.53;;;2.27;;
3689;SDS011;1861;50.240;8.596;2023-11-21T02:26:51;3.17;;;2.10;;
3689;SDS011;1861;50.240;8.596;2023-11-21T02:29:20;2.33;;;2.10;;
3689;SDS011;1861;50.240;8.596;2023-11-21T02:31:54;5.17;;;2.80;;
3689;SDS011;1861;50.240;8.596;2023-11-21T02:34:23;2.43;;;2.23;;
3689;SDS011;1861;50.240;8.596;2023-11-21T02:36:52;2.63;;;1.80;;
3689;SDS011;1861;50.240;8.596;2023-11-21T02:39:20;4.40;;;2.23;;
3689;SDS011;1861;50.240;8.596;2023-11-21T02:41:51;2.10;;;1.90;;
3689;SDS011;1861;50.240;8.596;2023-11-21T02:44:19;2.43;;;2.23;;
3689;SDS011;1861;50.240;8.596;2023-11-21T02:46:48;5.90;;;1.77;;
3689;SDS011;1861;50.240;8.596;2023-11-21T02:49:16;13.60;;;6.90;;
3689;SDS011;1861;50.240;8.596;2023-11-21T02:51:44;6.47;;;3.87;;
3689;SDS011;1861;50.240;8.596;2023-11-21T02:54:12;6.60;;;2.20;;
3689;SDS011;1861;50.240;8.596;2023-11-21T02:56:44;1.67;;;1.30;;
3689;SDS011;1861;50.240;8.596;2023-11-21T02:59:12;1.30;;;1.20;;
3689;SDS011;1861;50.240;8.596;2023-11-21T03:01:42;5.33;;;1.87;;
3689;SDS011;1861;50.240;8.596;2023-11-21T03:04:10;1.30;;;1.20;;
3689;SDS011;1861;50.240;8.596;2023-11-21T03:06:45;3.10;;;1.20;;
3689;SDS011;1861;50.240;8.596;2023-11-21T03:09:14;1.70;;;1.50;;
3689;SDS011;1861;50.240;8.596;2023-11-21T03:11:43;1.90;;;1.20;;
3689;SDS011;1861;50.240;8.596;2023-11-21T03:14:12;2.40;;;1.33;;
3689;SDS011;1861;50.240;8.596;2023-11-21T03:16:40;1.53;;;1.40;;
3689;SDS011;1861;50.240;8.596;2023-11-21T03:19:08;1.60;;;1.27;;
3689;SDS011;1861;50.240;8.596;2023-11-21T03:21:36;1.47;;;1.10;;
3689;SDS011;1861;50.240;8.596;2023-11-21T03:24:05;1.20;;;1.10;;
3689;SDS011;1861;50.240;8.596;2023-11-21T03:26:34;1.47;;;1.03;;
3689;SDS011;1861;50.240;8.596;2023-11-21T03:29:06;1.10;;;1.10;;
3689;SDS011;1861;50.240;8.596;2023-11-21T03:31:34;1.23;;;1.13;;
3689;SDS011;1861;50.240;8.596;2023-11-21T03:34:02;1.67;;;1.00;;
3689;SDS011;1861;50.240;8.596;2023-11-21T03:36:30;3.10;;;1.43;;
3689;SDS011;1861;50.240;8.596;2023-11-21T03:38:59;1.30;;;1.20;;
3689;SDS011;1861;50.240;8.596;2023-11-21T03:41:27;2.47;;;1.73;;
3689;SDS011;1861;50.240;8.596;2023-11-21T03:43:55;1.83;;;1.50;;
3689;SDS011;1861;50.240;8.596;2023-11-21T03:46:24;1.63;;;1.53;;
3689;SDS011;1861;50.240;8.596;2023-11-21T03:48:53;2.77;;;2.53;;
3689;SDS011;1861;50.240;8.596;2023-11-21T03:51:22;1.70;;;1.57;;
3689;SDS011;1861;50.240;8.596;2023-11-21T03:53:50;2.10;;;1.70;;
3689;SDS011;1861;50.240;8.596;2023-11-21T03:56:18;2.40;;;1.13;;
3689;SDS011;1861;50.240;8.596;2023-11-21T03:58:48;3.33;;;1.57;;
3689;SDS011;1861;50.240;8.596;2023-11-21T04:01:20;1.33;;;1.23;;
3689;SDS011;1861;50.240;8.596;2023-11-21T04:03:50;1.80;;;1.60;;
3689;SDS011;1861;50.240;8.596;2023-11-21T04:06:19;2.70;;;1.60;;
3689;SDS011;1861;50.240;8.596;2023-11-21T04:08:47;7.17;;;1.70;;
3689;SDS011;1861;50.240;8.596;2023-11-21T04:11:15;2.90;;;1.60;;
3689;SDS011;1861;50.240;8.596;2023-11-21T04:13:43;3.87;;;2.83;;
3689;SDS011;1861;50.240;8.596;2023-11-21T04:16:13;5.70;;;3.67;;
3689;SDS011;1861;50.240;8.596;2023-11-21T04:18:41;7.70;;;4.50;;
3689;SDS011;1861;50.240;8.596;2023-11-21T04:21:11;4.53;;;3.37;;
3689;SDS011;1861;50.240;8.596;2023-11-21T04:23:39;3.70;;;2.80;;
3689;SDS011;1861;50.240;8.596;2023-11-21T04:26:07;3.70;;;2.90;;
3689;SDS011;1861;50.240;8.596;2023-11-21T04:28:35;4.67;;;2.77;;
3689;SDS011;1861;50.240;8.596;2023-11-21T04:31:03;4.50;;;2.80;;
3689;SDS011;1861;50.240;8.596;2023-11-21T04:33:31;8.23;;;4.80;;
3689;SDS011;1861;50.240;8.596;2023-11-21T04:36:00;4.40;;;3.40;;
3689;SDS011;1861;50.240;8.596;2023-11-21T04:38:29;5.87;;;3.60;;
3689;SDS011;1861;50.240;8.596;2023-11-21T04:40:57;11.20;;;4.77;;
3689;SDS011;1861;50.240;8.596;2023-11-21T04:43:28;7.30;;;3.50;;
3689;SDS011;1861;50.240;8.596;2023-11-21T04:45:57;6.93;;;4.20;;
3689;SDS011;1861;50.240;8.596;2023-11-21T04:48:25;8.10;;;4.07;;
3689;SDS011;1861;50.240;8.596;2023-11-21T04:50:53;5.40;;;3.63;;
3689;SDS011;1861;50.240;8.596;2023-11-21T04:53:21;7.57;;;4.30;;
3689;SDS011;1861;50.240;8.596;2023-11-21T04:55:50;5.60;;;4.33;;
3689;SDS011;1861;50.240;8.596;2023-11-21T04:58:19;10.23;;;4.33;;
3689;SDS011;1861;50.240;8.596;2023-11-21T05:00:47;5.73;;;3.77;;
3689;SDS011;1861;50.240;8.596;2023-11-21T05:03:16;5.20;;;3.80;;
3689;SDS011;1861;50.240;8.596;2023-11-21T05:05:44;5.07;;;3.00;;
3689;SDS011;1861;50.240;8.596;2023-11-21T05:08:12;4.00;;;3.23;;
3689;SDS011;1861;50.240;8.596;2023-11-21T05:10:40;4.53;;;3.20;;
3689;SDS011;1861;50.240;8.596;2023-11-21T05:13:10;4.70;;;3.37;;
3689;SDS011;1861;50.240;8.596;2023-11-21T05:15:38;3.13;;;2.77;;
3689;SDS011;1861;50.240;8.596;2023-11-21T05:18:07;2.90;;;2.60;;
3689;SDS011;1861;50.240;8.596;2023-11-21T05:20:35;2.77;;;2.20;;
3689;SDS011;1861;50.240;8.596;2023-11-21T05:23:04;3.10;;;2.37;;
3689;SDS011;1861;50.240;8.596;2023-11-21T05:25:33;2.73;;;2.10;;
3689;SDS011;1861;50.240;8.596;2023-11-21T05:28:05;4.07;;;1.90;;
3689;SDS011;1861;50.240;8.596;2023-11-21T05:30:35;3.50;;;1.70;;
3689;SDS011;1861;50.240;8.596;2023-11-21T05:33:05;1.77;;;1.40;;
3689;SDS011;1861;50.240;8.596;2023-11-21T05:35:33;2.40;;;1.30;;
3689;SDS011;1861;50.240;8.596;2023-11-21T05:38:01;0.80;;;0.70;;
3689;SDS011;1861;50.240;8.596;2023-11-21T05:40:29;1.00;;;0.70;;
3689;SDS011;1861;50.240;8.596;2023-11-21T05:42:57;0.90;;;0.73;;
3689;SDS011;1861;50.240;8.596;2023-11-21T05:45:25;2.73;;;0.77;;
3689;SDS011;1861;50.240;8.596;2023-11-21T05:47:57;1.50;;;0.80;;
3689;SDS011;1861;50.240;8.596;2023-11-21T05:50:26;1.10;;;1.00;;
3689;SDS011;1861;50.240;8.596;2023-11-21T05:52:54;0.80;;;0.80;;
3689;SDS011;1861;50.240;8.596;2023-11-21T05:55:23;0.60;;;0.50;;
3689;SDS011;1861;50.240;8.596;2023-11-21T05:57:52;0.80;;;0.60;;
3689;SDS011;1861;50.240;8.596;2023-11-21T06:00:20;0.80;;;0.73;;
3689;SDS011;1861;50.240;8.596;2023-11-21T06:02:49;0.97;;;0.70;;
3689;SDS011;1861;50.240;8.596;2023-11-21T06:05:21;0.90;;;0.80;;
3689;SDS011;1861;50.240;8.596;2023-11-21T06:07:52;1.67;;;0.73;;
3689;SDS011;1861;50.240;8.596;2023-11-21T06:10:21;0.93;;;0.83;;
3689;SDS011;1861;50.240;8.596;2023-11-21T06:12:51;4.63;;;0.70;;
3689;SDS011;1861;50.240;8.596;2023-11-21T06:15:20;1.87;;;0.83;;
3689;SDS011;1861;50.240;8.596;2023-11-21T06:17:51;1.10;;;0.80;;
3689;SDS011;1861;50.240;8.596;2023-11-21T06:20:21;1.17;;;0.80;;
3689;SDS011;1861;50.240;8.596;2023-11-21T06:22:50;1.53;;;0.90;;
3689;SDS011;1861;50.240;8.596;2023-11-21T06:25:19;0.97;;;0.87;;
3689;SDS011;1861;50.240;8.596;2023-11-21T06:27:47;2.70;;;1.00;;
3689;SDS011;1861;50.240;8.596;2023-11-21T06:30:16;1.20;;;0.90;;
3689;SDS011;1861;50.240;8.596;2023-11-21T06:32:46;2.30;;;0.83;;
3689;SDS011;1861;50.240;8.596;2023-11-21T06:35:15;1.73;;;1.00;;
3689;SDS011;1861;50.240;8.596;2023-11-21T06:37:45;4.90;;;1.10;;
3689;SDS011;1861;50.240;8.596;2023-11-21T06:40:16;1.57;;;1.07;;
3689;SDS011;1861;50.240;8.596;2023-11-21T06:42:47;1.60;;;1.20;;
3689;SDS011;1861;50.240;8.596;2023-11-21T06:45:15;1.10;;;0.90;;
3689;SDS011;1861;50.240;8.596;2023-11-21T06:47:44;2.63;;;2.43;;
3689;SDS011;1861;50.240;8.596;2023-11-21T06:50:13;2.80;;;1.30;;
3689;SDS011;1861;50.240;8.596;2023-11-21T06:52:41;1.90;;;1.30;;
3689;SDS011;1861;50.240;8.596;2023-11-21T06:55:12;3.30;;;1.93;;
3689;SDS011;1861;50.240;8.596;2023-11-21T06:57:40;1.60;;;1.50;;
3689;SDS011;1861;50.240;8.596;2023-11-21T07:00:08;4.10;;;2.07;;
3689;SDS011;1861;50.240;8.596;2023-11-21T07:02:38;3.07;;;2.00;;
3689;SDS011;1861;50.240;8.596;2023-11-21T07:05:06;2.00;;;1.70;;
3689;SDS011;1861;50.240;8.596;2023-11-21T07:07:34;3.10;;;1.80;;
3689;SDS011;1861;50.240;8.596;2023-11-21T07:10:04;3.93;;;1.87;;
3689;SDS011;1861;50.240;8.596;2023-11-21T07:12:34;3.03;;;2.10;;
3689;SDS011;1861;50.240;8.596;2023-11-21T07:15:02;3.33;;;1.90;;
3689;SDS011;1861;50.240;8.596;2023-11-21T07:17:35;4.83;;;1.83;;
3689;SDS011;1861;50.240;8.596;2023-11-21T07:20:07;2.00;;;1.50;;
3689;SDS011;1861;50.240;8.596;2023-11-21T07:22:35;2.43;;;1.90;;
3689;SDS011;1861;50.240;8.596;2023-11-21T07:25:04;2.63;;;1.87;;
3689;SDS011;1861;50.240;8.596;2023-11-21T07:27:35;3.40;;;2.07;;
3689;SDS011;1861;50.240;8.596;2023-11-21T07:30:04;3.73;;;2.17;;
3689;SDS011;1861;50.240;8.596;2023-11-21T07:32:34;2.90;;;2.13;;
3689;SDS011;1861;50.240;8.596;2023-11-21T07:35:04;4.33;;;2.40;;
3689;SDS011;1861;50.240;8.596;2023-11-21T07:37:34;3.40;;;2.30;;
3689;SDS011;1861;50.240;8.596;2023-11-21T07:40:03;4.47;;;2.50;;
3689;SDS011;1861;50.240;8.596;2023-11-21T07:42:31;6.37;;;2.00;;
3689;SDS011;1861;50.240;8.596;2023-11-21T07:45:01;4.43;;;2.53;;
3689;SDS011;1861;50.240;8.596;2023-11-21T07:47:29;3.80;;;2.60;;
3689;SDS011;1861;50.240;8.596;2023-11-21T07:50:01;5.60;;;2.70;;
3689;SDS011;1861;50.240;8.596;2023-11-21T07:52:31;5.53;;;2.67;;
3689;SDS011;1861;50.240;8.596;2023-11-21T07:54:59;6.60;;;2.90;;
3689;SDS011;1861;50.240;8.596;2023-11-21T07:57:28;4.07;;;2.83;;
3689;SDS011;1861;50.240;8.596;2023-11-21T07:59:56;6.50;;;3.03;;
3689;SDS011;1861;50.240;8.596;2023-11-21T08:02:25;4.40;;;2.90;;
3689;SDS011;1861;50.240;8.596;2023-11-21T08:04:54;3.10;;;2.77;;
3689;SDS011;1861;50.240;8.596;2023-11-21T08:07:23;5.37;;;3.30;;
3689;SDS011;1861;50.240;8.596;2023-11-21T08:09:52;9.53;;;4.30;;
3689;SDS011;1861;50.240;8.596;2023-11-21T08:12:20;12.17;;;3.53;;
3689;SDS011;1861;50.240;8.596;2023-11-21T08:14:48;7.73;;;3.03;;
3689;SDS011;1861;50.240;8.596;2023-11-21T08:17:16;6.70;;;2.93;;
3689;SDS011;1861;50.240;8.596;2023-11-21T08:19:48;9.07;;;3.07;;
3689;SDS011;1861;50.240;8.596;2023-11-21T08:22:17;4.53;;;2.80;;
3689;SDS011;1861;50.240;8.596;2023-11-21T08:24:46;5.07;;;2.87;;
3689;SDS011;1861;50.240;8.596;2023-11-21T08:27:14;5.20;;;2.37;;
3689;SDS011;1861;50.240;8.596;2023-11-21T08:29:43;4.03;;;2.53;;
3689;SDS011;1861;50.240;8.596;2023-11-21T08:32:11;8.57;;;2.70;;
3689;SDS011;1861;50.240;8.596;2023-11-21T08:34:39;4.30;;;2.50;;
3689;SDS011;1861;50.240;8.596;2023-11-21T08:37:11;4.60;;;3.10;;
3689;SDS011;1861;50.240;8.596;2023-11-21T08:39:42;5.27;;;2.60;;
3689;SDS011;1861;50.240;8.596;2023-11-21T08:42:11;4.07;;;2.53;;
3689;SDS011;1861;50.240;8.596;2023-11-21T08:44:39;6.50;;;3.23;;
3689;SDS011;1861;50.240;8.596;2023-11-21T08:47:07;6.40;;;3.07;;
3689;SDS011;1861;50.240;8.596;2023-11-21T08:49:35;5.97;;;2.57;;
3689;SDS011;1861;50.240;8.596;2023-11-21T08:52:04;5.10;;;3.13;;
3689;SDS011;1861;50.240;8.596;2023-11-21T08:54:34;5.10;;;2.43;;
3689;SDS011;1861;50.240;8.596;2023-11-21T08:57:03;6.37;;;3.20;;
3689;SDS011;1861;50.240;8.596;2023-11-21T08:59:31;7.90;;;2.60;;
3689;SDS011;1861;50.240;8.596;2023-11-21T09:01:59;3.63;;;2.60;;
3689;SDS011;1861;50.240;8.596;2023-11-21T09:04:27;3.40;;;2.57;;
3689;SDS011;1861;50.240;8.596;2023-11-21T09:06:56;9.87;;;2.70;;
3689;SDS011;1861;50.240;8.596;2023-11-21T09:09:26;3.13;;;1.90;;
3689;SDS011;1861;50.240;8.596;2023-11-21T09:11:56;3.70;;;2.47;;
3689;SDS011;1861;50.240;8.596;2023-11-21T09:14:27;3.60;;;2.43;;
3689;SDS011;1861;50.240;8.596;2023-11-21T09:16:55;4.10;;;2.20;;
3689;SDS011;1861;50.240;8.596;2023-11-21T09:19:23;5.17;;;2.23;;
3689;SDS011;1861;50.240;8.596;2023-11-21T09:21:52;6.77;;;2.30;;
3689;SDS011;1861;50.240;8.596;2023-11-21T09:24:20;5.03;;;1.90;;
3689;SDS011;1861;50.240;8.596;2023-11-21T09:26:48;2.67;;;2.10;;
3689;SDS011;1861;50.240;8.596;2023-11-21T09:29:18;3.27;;;1.67;;
3689;SDS011;1861;50.240;8.596;2023-11-21T09:31:46;3.50;;;1.83;;
3689;SDS011;1861;50.240;8.596;2023-11-21T09:34:14;4.00;;;2.30;;
3689;SDS011;1861;50.240;8.596;2023-11-21T09:36:44;5.53;;;2.10;;
3689;SDS011;1861;50.240;8.596;2023-11-21T09:39:12;5.60;;;2.40;;
3689;SDS011;1861;50.240;8.596;2023-11-21T09:41:43;6.03;;;2.47;;
3689;SDS011;1861;50.240;8.596;2023-11-21T09:44:17;10.70;;;2.97;;
3689;SDS011;1861;50.240;8.596;2023-11-21T09:46:50;3.30;;;2.57;;
3689;SDS011;1861;50.240;8.596;2023-11-21T09:49:21;4.00;;;2.43;;
3689;SDS011;1861;50.240;8.596;2023-11-21T09:51:53;4.70;;;2.47;;
3689;SDS011;1861;50.240;8.596;2023-11-21T09:54:23;5.93;;;2.70;;
3689;SDS011;1861;50.240;8.596;2023-11-21T09:56:53;4.17;;;2.40;;
3689;SDS011;1861;50.240;8.596;2023-11-21T09:59:23;4.10;;;2.20;;
3689;SDS011;1861;50.240;8.596;2023-11-21T10:01:51;3.67;;;2.33;;
3689;SDS011;1861;50.240;8.596;2023-11-21T10:04:20;4.53;;;2.20;;
3689;SDS011;1861;50.240;8.596;2023-11-21T10:06:48;3.90;;;2.00;;
3689;SDS011;1861;50.240;8.596;2023-11-21T10:09:17;4.20;;;2.50;;
3689;SDS011;1861;50.240;8.596;2023-11-21T10:11:47;4.73;;;1.93;;
3689;SDS011;1861;50.240;8.596;2023-11-21T10:14:18;7.23;;;2.40;;
3689;SDS011;1861;50.240;8.596;2023-11-21T10:16:53;4.73;;;2.60;;
3689;SDS011;1861;50.240;8.596;2023-11-21T10:19:23;7.00;;;2.53;;
3689;SDS011;1861;50.240;8.596;2023-11-21T10:21:53;4.30;;;2.13;;
3689;SDS011;1861;50.240;8.596;2023-11-21T10:24:24;4.30;;;1.97;;
3689;SDS011;1861;50.240;8.596;2023-11-21T10:26:52;8.77;;;3.10;;
3689;SDS011;1861;50.240;8.596;2023-11-21T10:29:21;5.50;;;2.43;;
3689;SDS011;1861;50.240;8.596;2023-11-21T10:31:49;4.90;;;2.50;;
3689;SDS011;1861;50.240;8.596;2023-11-21T10:34:20;7.20;;;2.20;;
3689;SDS011;1861;50.240;8.596;2023-11-21T10:36:49;2.60;;;2.13;;
3689;SDS011;1861;50.240;8.596;2023-11-21T10:39:17;3.97;;;1.93;;
3689;SDS011;1861;50.240;8.596;2023-11-21T10:41:47;6.20;;;2.87;;
3689;SDS011;1861;50.240;8.596;2023-11-21T10:44:16;8.20;;;2.17;;
3689;SDS011;1861;50.240;8.596;2023-11-21T10:46:48;2.03;;;1.80;;
3689;SDS011;1861;50.240;8.596;2023-11-21T10:49:18;6.40;;;2.30;;
3689;SDS011;1861;50.240;8.596;2023-11-21T10:51:51;3.13;;;1.73;;
3689;SDS011;1861;50.240;8.596;2023-11-21T10:54:20;4.17;;;2.20;;
3689;SDS011;1861;50.240;8.596;2023-11-21T10:56:49;2.93;;;2.13;;
3689;SDS011;1861;50.240;8.596;2023-11-21T10:59:20;5.40;;;2.17;;
3689;SDS011;1861;50.240;8.596;2023-11-21T11:01:52;4.40;;;2.17;;
3689;SDS011;1861;50.240;8.596;2023-11-21T11:04:23;3.83;;;2.10;;
3689;SDS011;1861;50.240;8.596;2023-11-21T11:06:54;2.83;;;1.90;;
3689;SDS011;1861;50.240;8.596;2023-11-21T11:09:24;6.97;;;2.10;;
3689;SDS011;1861;50.240;8.596;2023-11-21T11:11:53;8.50;;;2.57;;
3689;SDS011;1861;50.240;8.596;2023-11-21T11:14:21;2.20;;;1.77;;
3689;SDS011;1861;50.240;8.596;2023-11-21T11:16:53;2.17;;;1.97;;
3689;SDS011;1861;50.240;8.596;2023-11-21T11:19:24;2.33;;;1.63;;
3689;SDS011;1861;50.240;8.596;2023-11-21T11:21:56;5.90;;;1.73;;
3689;SDS011;1861;50.240;8.596;2023-11-21T11:24:51;4.97;;;2.50;;
3689;SDS011;1861;50.240;8.596;2023-11-21T11:27:42;2.20;;;2.00;;
3689;SDS011;1861;50.240;8.596;2023-11-21T11:30:22;3.80;;;2.43;;
3689;SDS011;1861;50.240;8.596;2023-11-21T11:33:02;4.43;;;2.40;;
3689;SDS011;1861;50.240;8.596;2023-11-21T11:35:41;5.47;;;2.27;;
3689;SDS011;1861;50.240;8.596;2023-11-21T11:38:17;5.87;;;2.00;;
3689;SDS011;1861;50.240;8.596;2023-11-21T11:40:46;2.90;;;1.67;;
3689;SDS011;1861;50.240;8.596;2023-11-21T11:43:16;2.60;;;2.40;;
3689;SDS011;1861;50.240;8.596;2023-11-21T11:45:55;5.37;;;1.80;;
3689;SDS011;1861;50.240;8.596;2023-11-21T11:48:23;7.00;;;2.00;;
3689;SDS011;1861;50.240;8.596;2023-11-21T11:51:03;4.00;;;2.20;;
3689;SDS011;1861;50.240;8.596;2023-11-21T11:53:35;3.83;;;1.93;;
3689;SDS011;1861;50.240;8.596;2023-11-21T11:56:19;6.53;;;2.33;;
3689;SDS011;1861;50.240;8.596;2023-11-21T11:58:52;8.47;;;2.07;;
3689;SDS011;1861;50.240;8.596;2023-11-21T12:01:21;3.60;;;2.40;;
3689;SDS011;1861;50.240;8.596;2023-11-21T12:07:02;3.87;;;2.20;;
3689;SDS011;1861;50.240;8.596;2023-11-21T12:09:31;4.10;;;2.10;;
3689;SDS011;1861;50.240;8.596;2023-11-21T12:11:59;3.43;;;1.67;;
3689;SDS011;1861;50.240;8.596;2023-11-21T12:14:27;2.53;;;1.77;;
3689;SDS011;1861;50.240;8.596;2023-11-21T12:16:56;3.37;;;2.00;;
3689;SDS011;1861;50.240;8.596;2023-11-21T12:19:25;3.63;;;2.40;;
3689;SDS011;1861;50.240;8.596;2023-11-21T12:21:53;3.13;;;2.10;;
3689;SDS011;1861;50.240;8.596;2023-11-21T12:24:23;4.20;;;2.37;;
3689;SDS011;1861;50.240;8.596;2023-11-21T12:26:52;4.23;;;2.20;;
3689;SDS011;1861;50.240;8.596;2023-11-21T12:29:20;9.63;;;2.00;;
3689;SDS011;1861;50.240;8.596;2023-11-21T12:31:48;2.77;;;1.97;;
3689;SDS011;1861;50.240;8.596;2023-11-21T12:34:17;5.40;;;2.10;;
3689;SDS011;1861;50.240;8.596;2023-11-21T12:36:45;1.67;;;1.57;;
3689;SDS011;1861;50.240;8.596;2023-11-21T12:39:15;4.90;;;1.90;;
3689;SDS011;1861;50.240;8.596;2023-11-21T12:41:45;5.10;;;2.30;;
3689;SDS011;1861;50.240;8.596;2023-11-21T12:44:13;3.23;;;1.73;;
3689;SDS011;1861;50.240;8.596;2023-11-21T12:46:42;3.80;;;2.10;;
3689;SDS011;1861;50.240;8.596;2023-11-21T12:49:12;2.20;;;1.80;;
3689;SDS011;1861;50.240;8.596;2023-11-21T12:51:45;5.40;;;1.83;;
3689;SDS011;1861;50.240;8.596;2023-11-21T12:54:13;2.53;;;2.00;;
3689;SDS011;1861;50.240;8.596;2023-11-21T12:56:46;6.13;;;1.83;;
3689;SDS011;1861;50.240;8.596;2023-11-21T12:59:15;7.53;;;2.37;;
3689;SDS011;1861;50.240;8.596;2023-11-21T13:01:45;3.27;;;2.20;;
3689;SDS011;1861;50.240;8.596;2023-11-21T13:04:15;4.43;;;1.93;;
3689;SDS011;1861;50.240;8.596;2023-11-21T13:06:45;3.10;;;2.20;;
3689;SDS011;1861;50.240;8.596;2023-11-21T13:09:13;2.47;;;1.70;;
3689;SDS011;1861;50.240;8.596;2023-11-21T13:11:49;5.73;;;2.00;;
3689;SDS011;1861;50.240;8.596;2023-11-21T13:14:19;3.17;;;2.20;;
3689;SDS011;1861;50.240;8.596;2023-11-21T13:16:55;2.20;;;1.60;;
3689;SDS011;1861;50.240;8.596;2023-11-21T13:19:24;4.60;;;1.97;;
3689;SDS011;1861;50.240;8.596;2023-11-21T13:21:56;3.97;;;2.27;;
3689;SDS011;1861;50.240;8.596;2023-11-21T13:24:25;5.60;;;2.57;;
3689;SDS011;1861;50.240;8.596;2023-11-21T13:26:54;3.00;;;1.63;;
3689;SDS011;1861;50.240;8.596;2023-11-21T13:29:22;4.40;;;2.03;;
3689;SDS011;1861;50.240;8.596;2023-11-21T13:31:52;2.70;;;2.03;;
3689;SDS011;1861;50.240;8.596;2023-11-21T13:34:21;3.70;;;2.13;;
3689;SDS011;1861;50.240;8.596;2023-11-21T13:36:54;7.67;;;2.17;;
3689;SDS011;1861;50.240;8.596;2023-11-21T13:39:27;2.40;;;1.90;;
3689;SDS011;1861;50.240;8.596;2023-11-21T13:41:56;4.23;;;2.10;;
3689;SDS011;1861;50.240;8.596;2023-11-21T13:44:25;3.80;;;2.00;;
3689;SDS011;1861;50.240;8.596;2023-11-21T13:47:00;4.83;;;2.30;;
3689;SDS011;1861;50.240;8.596;2023-11-21T13:49:29;4.63;;;2.17;;
3689;SDS011;1861;50.240;8.596;2023-11-21T13:52:01;5.70;;;2.30;;
3689;SDS011;1861;50.240;8.596;2023-11-21T13:54:30;2.70;;;2.30;;
3689;SDS011;1861;50.240;8.596;2023-11-21T13:56:59;5.57;;;2.77;;
3689;SDS011;1861;50.240;8.596;2023-11-21T13:59:29;9.37;;;2.00;;
3689;SDS011;1861;50.240;8.596;2023-11-21T14:01:59;4.20;;;1.90;;
3689;SDS011;1861;50.240;8.596;2023-11-21T14:04:39;4.40;;;2.00;;
3689;SDS011;1861;50.240;8.596;2023-11-21T14:07:21;2.50;;;2.27;;
3689;SDS011;1861;50.240;8.596;2023-11-21T14:09:58;6.10;;;2.50;;
3689;SDS011;1861;50.240;8.596;2023-11-21T14:12:28;3.37;;;2.40;;
3689;SDS011;1861;50.240;8.596;2023-11-21T14:15:04;3.13;;;2.00;;
3689;SDS011;1861;50.240;8.596;2023-11-21T14:17:36;3.30;;;1.90;;
3689;SDS011;1861;50.240;8.596;2023-11-21T14:20:07;3.43;;;1.63;;
3689;SDS011;1861;50.240;8.596;2023-11-21T14:22:43;9.00;;;2.27;;
3689;SDS011;1861;50.240;8.596;2023-11-21T14:25:11;3.27;;;1.90;;
3689;SDS011;1861;50.240;8.596;2023-11-21T14:27:42;3.40;;;2.43;;
3689;SDS011;1861;50.240;8.596;2023-11-21T14:30:10;3.20;;;2.30;;
3689;SDS011;1861;50.240;8.596;2023-11-21T14:32:40;7.87;;;2.83;;
3689;SDS011;1861;50.240;8.596;2023-11-21T14:35:08;3.23;;;2.30;;
3689;SDS011;1861;50.240;8.596;2023-11-21T14:37:37;6.10;;;2.10;;
3689;SDS011;1861;50.240;8.596;2023-11-21T14:40:06;3.83;;;2.70;;
3689;SDS011;1861;50.240;8.596;2023-11-21T14:42:35;3.40;;;2.20;;
3689;SDS011;1861;50.240;8.596;2023-11-21T14:45:08;7.37;;;2.40;;
3689;SDS011;1861;50.240;8.596;2023-11-21T14:47:39;3.80;;;2.33;;
3689;SDS011;1861;50.240;8.596;2023-11-21T14:50:13;4.70;;;2.00;;
3689;SDS011;1861;50.240;8.596;2023-11-21T14:53:07;11.47;;;2.33;;
3689;SDS011;1861;50.240;8.596;2023-11-21T14:55:37;5.83;;;2.20;;
3689;SDS011;1861;50.240;8.596;2023-11-21T14:58:19;2.40;;;1.90;;
3689;SDS011;1861;50.240;8.596;2023-11-21T15:00:55;6.50;;;2.17;;
3689;SDS011;1861;50.240;8.596;2023-11-21T15:03:24;4.10;;;1.63;;
3689;SDS011;1861;50.240;8.596;2023-11-21T15:06:16;4.80;;;2.03;;
3689;SDS011;1861;50.240;8.596;2023-11-21T15:08:53;7.93;;;3.37;;
3689;SDS011;1861;50.240;8.596;2023-11-21T15:11:40;8.67;;;3.20;;
3689;SDS011;1861;50.240;8.596;2023-11-21T15:14:08;6.07;;;3.23;;
3689;SDS011;1861;50.240;8.596;2023-11-21T15:16:41;7.50;;;3.77;;
3689;SDS011;1861;50.240;8.596;2023-11-21T15:19:13;7.40;;;4.07;;
3689;SDS011;1861;50.240;8.596;2023-11-21T15:21:45;14.50;;;3.83;;
3689;SDS011;1861;50.240;8.596;2023-11-21T15:24:13;6.93;;;3.67;;
3689;SDS011;1861;50.240;8.596;2023-11-21T15:26:41;8.20;;;3.77;;
3689;SDS011;1861;50.240;8.596;2023-11-21T15:29:09;10.53;;;2.50;;
3689;SDS011;1861;50.240;8.596;2023-11-21T15:31:37;8.80;;;2.90;;
3689;SDS011;1861;50.240;8.596;2023-11-21T15:34:11;3.43;;;2.80;;